Cuenca, Spain
Current Conditions -  °F | °C
As of 3:30 PM on Wednesday 22 Oct 2014 (Local Time) from LETL Reporting Station
NA  
Wind Chill: 55°   Ceiling: NA
Heat Index: 55°   Visibility: 6mi
Dew Point: 41°   Wind: 14mph
Humidity: 58%   Direction: 350°N
Pressure: 30.42"   Gusts: NA
Location:  40.07°N, 2.13°W
Report Text: LETL 221330Z AUTO 35012KT 9999 ////// 13/05 Q1030
Loading
Personal Weather Stations






























Interactive Weather Map
Tropical Storm Tracking
New forecast layout! Learn more

10-Day Weather Forecast

Advertisements
Track Severe Weather on mobile